Time;durP1;ratioP1;P1;durP2;ratioP2;P2;SDS_P1;SDS_P2;PMS_P1;PMS_P2;Temp;Humidity;BMP_temperature;BMP_pressure;BME280_temperature;BME280_humidity;BME280_pressure;Samples;Min_cycle;Max_cycle;Signal;HPM_P1;HPM_P2
2023/03/18 00:00:49;;;;;;;52.42;14.23;;;;;;;9.28;100.00;99247.41;5051300;28;20056;-43
2023/03/18 00:03:16;;;;;;;51.55;14.50;;;;;;;9.29;100.00;99255.34;5058453;28;20147;-43
2023/03/18 00:05:44;;;;;;;56.50;14.38;;;;;;;9.29;100.00;99260.06;5063554;28;20135;-43
2023/03/18 00:08:11;;;;;;;41.67;11.88;;;;;;;9.29;100.00;99265.59;5057929;28;20061;-50
2023/03/18 00:10:38;;;;;;;54.33;12.95;;;;;;;9.30;100.00;99261.63;5057494;28;20040;-48
2023/03/18 00:13:05;;;;;;;43.53;14.02;;;;;;;9.32;100.00;99270.38;5062244;28;20056;-43
2023/03/18 00:15:31;;;;;;;50.05;13.15;;;;;;;9.31;100.00;99274.28;5062781;28;20052;-43
2023/03/18 00:17:58;;;;;;;45.90;14.65;;;;;;;9.31;100.00;99275.09;5048554;28;20053;-44
2023/03/18 00:20:37;;;;;;;56.28;12.10;;;;;;;9.34;100.00;99284.59;5061809;28;20090;-45
2023/03/18 00:23:07;;;;;;;44.25;13.57;;;;;;;9.36;100.00;99285.00;5051055;28;20055;-43
2023/03/18 00:25:35;;;;;;;44.97;14.13;;;;;;;9.36;100.00;99282.25;5060723;28;20048;-43
2023/03/18 00:28:06;;;;;;;48.22;12.40;;;;;;;9.36;100.00;99287.78;5055383;28;20053;-43
2023/03/18 00:30:36;;;;;;;52.30;15.18;;;;;;;9.37;100.00;99289.38;5063580;28;20041;-43
2023/03/18 00:33:02;;;;;;;46.90;14.38;;;;;;;9.36;100.00;99288.56;5057257;28;20044;-42
2023/03/18 00:35:29;;;;;;;44.83;13.02;;;;;;;9.35;100.00;99286.97;5058709;28;20494;-45
2023/03/18 00:37:57;;;;;;;48.88;15.55;;;;;;;9.36;100.00;99293.28;5058409;28;20480;-43
2023/03/18 00:40:41;;;;;;;43.15;14.48;;;;;;;9.34;100.00;99285.41;5064511;28;20040;-42
2023/03/18 00:43:11;;;;;;;47.45;11.93;;;;;;;9.33;100.00;99292.09;5055485;28;20135;-44
2023/03/18 00:45:39;;;;;;;32.80;11.82;;;;;;;9.31;100.00;99291.66;5059607;28;20255;-44
2023/03/18 00:48:07;;;;;;;40.22;11.70;;;;;;;9.31;100.00;99296.38;5062149;28;20137;-43
2023/03/18 00:50:35;;;;;;;46.95;12.50;;;;;;;9.31;100.00;99302.72;5060553;28;20070;-44
2023/03/18 00:53:03;;;;;;;49.47;14.32;;;;;;;9.32;100.00;99307.03;5066834;28;20052;-43
2023/03/18 00:55:30;;;;;;;40.30;15.10;;;;;;;9.33;100.00;99300.38;5068691;28;20041;-43
2023/03/18 00:57:56;;;;;;;53.58;17.38;;;;;;;9.32;100.00;99300.75;5082231;28;20049;-47
2023/03/18 01:00:25;;;;;;;48.33;20.48;;;;;;;9.32;100.00;99298.00;5061974;28;20072;-43
2023/03/18 01:02:52;;;;;;;53.17;18.55;;;;;;;9.31;100.00;99297.19;5069203;28;20536;-43
2023/03/18 01:05:19;;;;;;;48.13;16.25;;;;;;;9.32;100.00;99298.00;5067362;28;20044;-43
2023/03/18 01:07:46;;;;;;;46.03;15.38;;;;;;;9.35;100.00;99298.03;5067824;28;20065;-44
2023/03/18 01:10:14;;;;;;;43.40;15.63;;;;;;;9.36;100.00;99298.81;5050714;28;20068;-43
2023/03/18 01:12:45;;;;;;;43.25;15.73;;;;;;;9.35;100.00;99294.47;5069013;28;20086;-43
2023/03/18 01:15:15;;;;;;;43.10;13.75;;;;;;;9.37;100.00;99305.94;5068464;28;20127;-43
2023/03/18 01:17:44;;;;;;;42.40;14.75;;;;;;;9.38;100.00;99302.00;5069076;28;20106;-43
2023/03/18 01:20:13;;;;;;;45.95;15.23;;;;;;;9.40;100.00;99299.69;5050052;28;20138;-43
2023/03/18 01:22:41;;;;;;;38.70;13.90;;;;;;;9.41;100.00;99301.25;5067705;28;20040;-43
2023/03/18 01:25:09;;;;;;;39.38;13.40;;;;;;;9.41;100.00;99298.50;5068141;28;20028;-48
2023/03/18 01:27:36;;;;;;;41.38;15.65;;;;;;;9.40;100.00;99308.75;5069069;28;20395;-51
2023/03/18 01:30:05;;;;;;;37.83;12.52;;;;;;;9.40;100.00;99305.22;5055018;28;20045;-46
2023/03/18 01:32:33;;;;;;;40.10;14.23;;;;;;;9.38;100.00;99304.75;5064101;28;20441;-43
2023/03/18 01:34:59;;;;;;;48.30;15.25;;;;;;;9.38;100.00;99313.84;5050070;28;20037;-44
2023/03/18 01:37:27;;;;;;;32.67;13.68;;;;;;;9.40;100.00;99310.75;5056978;28;20705;-45
2023/03/18 01:39:54;;;;;;;36.15;13.07;;;;;;;9.39;100.00;99306.38;5063309;28;20510;-43
2023/03/18 01:42:21;;;;;;;33.97;11.77;;;;;;;9.39;100.00;99314.66;5064632;28;20071;-44
2023/03/18 01:44:48;;;;;;;43.42;12.25;;;;;;;9.38;100.00;99313.06;5063998;28;20040;-43
2023/03/18 01:47:16;;;;;;;38.47;12.82;;;;;;;9.38;100.00;99308.31;5068586;28;20045;-44
2023/03/18 01:49:47;;;;;;;34.20;13.35;;;;;;;9.40;100.00;99319.03;5068602;28;20398;-43
2023/03/18 01:52:21;;;;;;;37.70;12.77;;;;;;;9.41;100.00;99312.31;5068691;28;20056;-43
2023/03/18 01:54:57;;;;;;;31.95;11.13;;;;;;;9.42;100.00;99319.44;5060766;28;20048;-44
2023/03/18 01:57:25;;;;;;;34.00;13.15;;;;;;;9.41;100.00;99318.63;5067695;28;20506;-42
2023/03/18 01:59:54;;;;;;;41.22;11.73;;;;;;;9.41;100.00;99324.16;5068793;28;20055;-42
2023/03/18 02:02:21;;;;;;;40.75;13.73;;;;;;;9.41;100.00;99324.16;5068064;28;20040;-44
2023/03/18 02:04:53;;;;;;;35.15;12.32;;;;;;;9.42;100.00;99322.19;5067534;28;20498;-43
2023/03/18 02:07:28;;;;;;;24.70;10.50;;;;;;;9.42;100.00;99333.25;5068258;28;20052;-44
2023/03/18 02:10:01;;;;;;;32.78;10.48;;;;;;;9.42;100.00;99331.28;5068797;28;20087;-43
2023/03/18 02:12:32;;;;;;;35.40;10.20;;;;;;;9.44;100.00;99333.66;5068178;28;20041;-47
2023/03/18 02:15:06;;;;;;;24.45;9.80;;;;;;;9.44;100.00;99333.66;5063221;28;20040;-43
2023/03/18 02:17:37;;;;;;;33.00;10.63;;;;;;;9.42;100.00;99330.50;5068472;28;20305;-43
2023/03/18 02:20:37;;;;;;;26.48;10.30;;;;;;;9.42;100.00;99333.25;5071163;28;20048;-43
2023/03/18 02:23:30;;;;;;;26.05;9.20;;;;;;;9.44;100.00;99333.66;5068156;28;20470;-43
2023/03/18 02:26:42;;;;;;;35.38;10.90;;;;;;;9.41;100.00;99337.16;5070967;28;20044;-44
2023/03/18 02:29:13;;;;;;;32.63;10.55;;;;;;;9.41;100.00;99345.47;5048498;28;20045;-42
2023/03/18 02:31:41;;;;;;;24.80;9.02;;;;;;;9.40;100.00;99344.66;5042999;28;20988;-43
2023/03/18 02:34:10;;;;;;;27.85;9.90;;;;;;;9.42;100.00;99339.59;5059171;28;20111;-44
2023/03/18 02:36:37;;;;;;;35.58;12.73;;;;;;;9.44;100.00;99344.72;5063319;28;20049;-48
2023/03/18 02:39:04;;;;;;;28.77;10.15;;;;;;;9.45;100.00;99346.31;5063398;28;20052;-43
2023/03/18 02:41:34;;;;;;;33.30;10.00;;;;;;;9.44;100.00;99341.97;5060002;28;20048;-44
2023/03/18 02:44:01;;;;;;;28.77;10.07;;;;;;;9.42;100.00;99349.81;5068522;28;20047;-44
2023/03/18 02:46:29;;;;;;;25.30;9.13;;;;;;;9.43;100.00;99348.63;5062327;28;20041;-44
2023/03/18 02:49:01;;;;;;;23.23;9.40;;;;;;;9.42;100.00;99336.81;5071469;28;20278;-47
2023/03/18 02:51:28;;;;;;;19.05;9.18;;;;;;;9.40;100.00;99354.94;5071901;28;20094;-43
2023/03/18 02:54:09;;;;;;;29.38;9.10;;;;;;;9.39;100.00;99348.59;5070439;28;20051;-45
2023/03/18 02:56:41;;;;;;;23.52;9.20;;;;;;;9.37;100.00;99352.91;5071675;28;20049;-47
2023/03/18 02:59:10;;;;;;;33.45;12.30;;;;;;;9.37;100.00;99355.66;5071771;28;20048;-44
2023/03/18 03:01:38;;;;;;;25.65;10.00;;;;;;;9.38;100.00;99362.75;5166340;22;20059;-44
2023/03/18 03:04:06;;;;;;;38.05;14.13;;;;;;;9.38;100.00;99362.75;5050294;28;20584;-44
2023/03/18 03:06:34;;;;;;;31.90;12.25;;;;;;;9.37;100.00;99367.50;5044234;28;20041;-44
2023/03/18 03:09:02;;;;;;;27.15;12.23;;;;;;;9.39;100.00;99372.66;5043808;28;20049;-44
2023/03/18 03:11:30;;;;;;;24.83;9.98;;;;;;;9.39;100.00;99369.91;5048236;28;20033;-43
2023/03/18 03:13:56;;;;;;;26.60;10.13;;;;;;;9.40;100.00;99374.28;5048579;28;20045;-47
2023/03/18 03:16:23;;;;;;;25.17;9.32;;;;;;;9.40;100.00;99368.75;5048621;28;20116;-43
2023/03/18 03:18:50;;;;;;;25.70;10.02;;;;;;;9.41;100.00;99370.31;5044100;28;20068;-44
2023/03/18 03:21:17;;;;;;;22.20;10.35;;;;;;;9.39;100.00;99375.41;5045889;28;20056;-45
2023/03/18 03:23:46;;;;;;;20.77;8.60;;;;;;;9.39;100.00;99375.41;5038991;28;20029;-45
2023/03/18 03:26:14;;;;;;;23.75;8.98;;;;;;;9.39;100.00;99375.41;5043489;28;20140;-44
2023/03/18 03:28:41;;;;;;;17.77;9.00;;;;;;;9.37;100.00;99373.00;5047209;28;20049;-44
2023/03/18 03:31:09;;;;;;;24.83;8.68;;;;;;;9.38;100.00;99373.81;5042746;28;20390;-44
2023/03/18 03:33:42;;;;;;;18.05;7.55;;;;;;;9.35;100.00;99377.31;5050430;28;20034;-54
2023/03/18 03:36:12;;;;;;;22.58;8.82;;;;;;;9.34;100.00;99378.50;5041572;28;20430;-45
2023/03/18 03:38:40;;;;;;;22.35;8.52;;;;;;;9.35;100.00;99391.13;5047841;28;20037;-44
2023/03/18 03:41:09;;;;;;;22.02;7.47;;;;;;;9.32;100.00;99386.38;5043688;28;20040;-44
2023/03/18 03:43:39;;;;;;;21.70;8.27;;;;;;;9.33;100.00;99385.97;5039604;28;20506;-48
2023/03/18 03:46:08;;;;;;;21.38;8.05;;;;;;;9.33;100.00;99382.41;5044188;28;20056;-46
2023/03/18 03:48:35;;;;;;;20.80;7.90;;;;;;;9.34;100.00;99387.59;5029843;28;20597;-44
2023/03/18 03:51:02;;;;;;;21.55;7.88;;;;;;;9.35;100.00;99391.13;5044102;28;20041;-43
2023/03/18 03:53:32;;;;;;;20.67;6.68;;;;;;;9.36;100.00;99393.53;5048140;28;20052;-43
2023/03/18 03:55:59;;;;;;;17.48;6.50;;;;;;;9.37;100.00;99397.09;5047907;28;20131;-44
2023/03/18 03:58:26;;;;;;;15.85;4.93;;;;;;;9.38;100.00;99399.47;5047797;28;20441;-43
2023/03/18 04:00:53;;;;;;;15.70;4.85;;;;;;;9.39;100.00;99397.53;5047624;28;20183;-45
2023/03/18 04:03:20;;;;;;;15.00;4.68;;;;;;;9.40;100.00;99396.38;5029361;28;20037;-45
2023/03/18 04:05:48;;;;;;;26.13;7.35;;;;;;;9.40;100.00;99390.84;5043298;28;20045;-47
2023/03/18 04:08:14;;;;;;;10.60;3.80;;;;;;;9.42;100.00;99396.78;5046330;28;20049;-45
2023/03/18 04:10:42;;;;;;;12.85;3.90;;;;;;;9.41;100.00;99390.47;5045576;28;20103;-43
2023/03/18 04:13:09;;;;;;;14.45;3.60;;;;;;;9.41;100.00;99395.19;5048276;28;20095;-45
2023/03/18 04:15:36;;;;;;;10.60;3.20;;;;;;;9.40;100.00;99394.38;5046089;28;20044;-45
2023/03/18 04:18:05;;;;;;;9.68;2.88;;;;;;;9.41;100.00;99400.69;5047033;28;20044;-44
2023/03/18 04:20:34;;;;;;;16.33;3.58;;;;;;;9.39;100.00;99392.00;5043919;28;20037;-44
2023/03/18 04:23:01;;;;;;;12.40;2.97;;;;;;;9.40;100.00;99393.59;5046226;28;20045;-44
2023/03/18 04:25:28;;;;;;;12.40;3.92;;;;;;;9.39;100.00;99392.78;5047334;28;20138;-44
2023/03/18 04:27:55;;;;;;;14.93;3.47;;;;;;;9.39;100.00;99394.75;5048275;28;20052;-45
2023/03/18 04:30:24;;;;;;;8.35;2.25;;;;;;;9.39;100.00;99397.53;5041963;28;20060;-45
2023/03/18 04:32:51;;;;;;;11.57;2.40;;;;;;;9.39;100.00;99392.00;5045896;28;20091;-43
2023/03/18 04:35:18;;;;;;;10.05;2.17;;;;;;;9.39;100.00;99392.00;5036719;28;20128;-44
2023/03/18 04:37:45;;;;;;;11.25;2.33;;;;;;;9.39;100.00;99383.72;5042279;28;20049;-44
2023/03/18 04:40:12;;;;;;;8.60;1.95;;;;;;;9.39;100.00;99383.72;5046331;28;20067;-48
2023/03/18 04:42:38;;;;;;;14.90;2.35;;;;;;;9.37;100.00;99391.56;5048932;28;20136;-44
2023/03/18 04:45:06;;;;;;;5.97;2.13;;;;;;;9.34;100.00;99397.84;5049800;28;20487;-44
2023/03/18 04:47:34;;;;;;;5.63;2.03;;;;;;;9.31;100.00;99396.63;5024665;28;20419;-43
2023/03/18 04:50:03;;;;;;;7.53;2.40;;;;;;;9.31;100.00;99398.56;5031903;28;20056;-43
2023/03/18 04:52:30;;;;;;;17.27;3.00;;;;;;;9.30;100.00;99408.00;5059937;28;20048;-44
2023/03/18 04:54:57;;;;;;;11.20;2.25;;;;;;;9.30;100.00;99413.53;5049291;28;20051;-44
2023/03/18 04:57:23;;;;;;;15.05;3.55;;;;;;;9.29;100.00;99411.97;5048404;28;20410;-44
2023/03/18 04:59:50;;;;;;;15.65;3.17;;;;;;;9.29;100.00;99411.97;5049853;28;20076;-44
2023/03/18 05:02:18;;;;;;;9.75;2.55;;;;;;;9.27;100.00;99412.31;5048499;28;20053;-44
2023/03/18 05:04:45;;;;;;;6.20;2.60;;;;;;;9.27;100.00;99411.50;5044540;28;20052;-43
2023/03/18 05:07:14;;;;;;;9.10;2.50;;;;;;;9.27;100.00;99414.25;5041270;28;20045;-43
2023/03/18 05:09:41;;;;;;;9.93;2.28;;;;;;;9.27;100.00;99419.78;5037832;28;20033;-44
2023/03/18 05:12:14;;;;;;;11.05;2.08;;;;;;;9.25;100.00;99411.09;5048081;28;20080;-45
2023/03/18 05:14:42;;;;;;;4.55;1.90;;;;;;;9.26;100.00;99416.25;5046268;28;20040;-46
2023/03/18 05:17:14;;;;;;;9.90;1.88;;;;;;;9.26;100.00;99419.00;5046615;28;20124;-44
2023/03/18 05:19:43;;;;;;;10.07;2.50;;;;;;;9.26;100.00;99418.22;5044300;28;20071;-44
2023/03/18 05:22:10;;;;;;;9.43;2.20;;;;;;;9.24;100.00;99423.31;5042952;28;20041;-44
2023/03/18 05:24:39;;;;;;;8.85;2.08;;;;;;;9.22;100.00;99422.84;5027318;28;20051;-50
2023/03/18 05:27:06;;;;;;;7.95;2.03;;;;;;;9.18;100.00;99423.63;5029658;28;20406;-44
2023/03/18 05:29:33;;;;;;;10.77;1.85;;;;;;;9.14;100.00;99431.03;5031554;28;20558;-46
2023/03/18 05:31:59;;;;;;;8.35;2.10;;;;;;;9.08;100.00;99435.25;5048946;28;20136;-44
2023/03/18 05:34:26;;;;;;;10.63;2.60;;;;;;;9.05;100.00;99438.75;5042180;28;20228;-47
2023/03/18 05:36:53;;;;;;;15.48;2.42;;;;;;;9.01;100.00;99426.84;5048985;28;20128;-44
2023/03/18 05:39:20;;;;;;;5.75;1.85;;;;;;;8.99;100.00;99434.72;5030392;28;20080;-43
2023/03/18 05:41:46;;;;;;;12.00;2.47;;;;;;;8.96;100.00;99429.91;5048656;28;20127;-44
2023/03/18 05:44:13;;;;;;;6.95;2.08;;;;;;;8.94;100.00;99429.50;5048892;28;20040;-44
2023/03/18 05:46:40;;;;;;;11.55;2.30;;;;;;;8.87;100.00;99431.31;5060425;28;20084;-44
2023/03/18 05:49:07;;;;;;;6.85;1.55;;;;;;;8.80;100.00;99436.69;5047668;28;20081;-44
2023/03/18 05:51:34;;;;;;;5.30;1.80;;;;;;;8.76;100.00;99435.84;5043126;28;20051;-45
2023/03/18 05:54:02;;;;;;;6.28;2.17;;;;;;;8.76;100.00;99441.34;5043605;28;20042;-43
2023/03/18 05:56:30;;;;;;;10.18;3.53;;;;;;;8.79;100.00;99444.16;5021866;28;20049;-44
2023/03/18 05:58:57;;;;;;;9.07;2.33;;;;;;;8.79;100.00;99441.41;5047854;28;20056;-44
2023/03/18 06:01:24;;;;;;;12.98;2.47;;;;;;;8.80;100.00;99456.81;5043079;28;20140;-43
2023/03/18 06:03:52;;;;;;;13.63;2.75;;;;;;;8.81;100.00;99444.63;5047705;28;20057;-43
2023/03/18 06:06:19;;;;;;;16.05;2.38;;;;;;;8.83;100.00;99452.50;5037606;28;20068;-44
2023/03/18 06:08:45;;;;;;;11.98;3.22;;;;;;;8.84;100.00;99446.63;5043786;28;20402;-43
2023/03/18 06:11:12;;;;;;;10.40;2.33;;;;;;;8.86;100.00;99447.06;5045881;28;20039;-44
2023/03/18 06:13:39;;;;;;;7.60;2.25;;;;;;;8.86;100.00;99438.78;5044514;28;20148;-43
2023/03/18 06:16:07;;;;;;;9.13;2.10;;;;;;;8.87;100.00;99456.94;5044194;28;20072;-44
2023/03/18 06:18:34;;;;;;;9.43;2.10;;;;;;;8.87;100.00;99454.19;5041306;28;20045;-44
2023/03/18 06:21:00;;;;;;;19.48;3.13;;;;;;;8.87;100.00;99459.69;5048550;28;20051;-43
2023/03/18 06:23:27;;;;;;;17.40;3.75;;;;;;;8.85;100.00;99467.53;5041888;28;20461;-44
2023/03/18 06:25:54;;;;;;;11.50;2.08;;;;;;;8.84;100.00;99470.69;5041376;28;20040;-44
2023/03/18 06:28:21;;;;;;;11.02;2.30;;;;;;;8.81;100.00;99472.22;5043555;28;20566;-45
2023/03/18 06:30:47;;;;;;;10.02;1.80;;;;;;;8.81;100.00;99465.88;5043062;28;20160;-43
2023/03/18 06:33:15;;;;;;;16.02;2.30;;;;;;;8.82;100.00;99475.75;5043312;28;20059;-44
2023/03/18 06:35:42;;;;;;;11.52;2.10;;;;;;;8.81;100.00;99477.72;5042898;28;20049;-43
2023/03/18 06:38:13;;;;;;;10.68;2.08;;;;;;;8.79;100.00;99471.75;5028047;28;20120;-44
2023/03/18 06:40:39;;;;;;;9.73;2.00;;;;;;;8.77;100.00;99487.88;5048223;28;20115;-43
2023/03/18 06:43:06;;;;;;;13.98;2.22;;;;;;;8.77;100.00;99482.38;5037835;28;20055;-43
2023/03/18 06:45:33;;;;;;;13.15;3.22;;;;;;;8.78;100.00;99485.94;5026466;28;20041;-44
2023/03/18 06:48:00;;;;;;;9.85;2.22;;;;;;;8.76;100.00;99493.78;5046027;28;20045;-45
2023/03/18 06:50:27;;;;;;;14.68;3.33;;;;;;;8.74;100.00;99502.41;5041917;28;20073;-44
2023/03/18 06:52:54;;;;;;;10.82;3.03;;;;;;;8.74;100.00;99502.41;5045829;28;20043;-47
2023/03/18 06:55:20;;;;;;;9.77;2.33;;;;;;;8.75;100.00;99501.25;5046417;28;20051;-43
2023/03/18 06:57:47;;;;;;;9.13;2.20;;;;;;;8.74;100.00;99505.16;5046569;28;20052;-44
2023/03/18 07:00:15;;;;;;;11.73;3.33;;;;;;;8.74;100.00;99507.91;5044260;28;20025;-43
2023/03/18 07:02:42;;;;;;;9.50;2.72;;;;;;;8.72;100.00;99513.00;5039187;28;20498;-43
2023/03/18 07:05:09;;;;;;;11.23;2.75;;;;;;;8.68;100.00;99514.91;5047860;28;20048;-44
2023/03/18 07:07:36;;;;;;;11.55;2.92;;;;;;;8.62;100.00;99516.34;5045896;28;20131;-53
2023/03/18 07:10:08;;;;;;;9.13;2.55;;;;;;;8.59;100.00;99525.34;5048335;28;20045;-43
2023/03/18 07:12:35;;;;;;;10.63;2.92;;;;;;;8.58;100.00;99523.75;5043434;28;20052;-44
2023/03/18 07:15:02;;;;;;;12.85;4.53;;;;;;;8.57;100.00;99528.47;5051172;28;20049;-43
2023/03/18 07:17:29;;;;;;;12.00;2.63;;;;;;;8.58;100.00;99532.00;5048574;28;20147;-44
2023/03/18 07:19:56;;;;;;;8.55;2.30;;;;;;;8.61;100.00;99536.00;5048276;28;20049;-43
2023/03/18 07:22:23;;;;;;;15.48;2.67;;;;;;;8.65;100.00;99536.91;5048044;28;20531;-46
2023/03/18 07:24:51;;;;;;;12.50;2.35;;;;;;;8.71;100.00;99541.75;5045608;28;20074;-43
2023/03/18 07:27:18;;;;;;;8.32;2.30;;;;;;;8.74;100.00;99543.78;5046493;28;20120;-43
2023/03/18 07:29:45;;;;;;;12.70;2.38;;;;;;;8.82;100.00;99551.06;5032439;28;20056;-43
2023/03/18 07:32:12;;;;;;;10.23;1.60;;;;;;;8.88;100.00;99549.63;5047046;28;20097;-44
2023/03/18 07:34:39;;;;;;;8.90;2.28;;;;;;;8.94;100.00;99550.94;5047675;28;20051;-44
2023/03/18 07:37:05;;;;;;;7.22;1.88;;;;;;;9.00;100.00;99560.50;5048358;28;20143;-51
2023/03/18 07:39:32;;;;;;;6.28;1.50;;;;;;;9.08;100.00;99556.72;5045695;28;20060;-44
2023/03/18 07:41:59;;;;;;;7.80;2.00;;;;;;;9.14;100.00;99560.81;5045962;28;20069;-43
2023/03/18 07:44:26;;;;;;;6.93;1.38;;;;;;;9.22;100.00;99571.97;5044886;28;20049;-46
2023/03/18 07:46:52;;;;;;;6.68;1.48;;;;;;;9.28;100.00;99565.00;5046883;28;20052;-44
2023/03/18 07:49:20;;;;;;;6.00;1.40;;;;;;;9.37;100.00;99571.13;5048960;28;20180;-44
2023/03/18 07:51:47;;;;;;;9.65;2.03;;;;;;;9.44;100.00;99576.75;5045268;28;20047;-47
2023/03/18 07:54:13;;;;;;;4.20;1.27;;;;;;;9.47;100.00;99568.56;5042855;28;20052;-44
2023/03/18 07:56:40;;;;;;;6.65;1.67;;;;;;;9.55;100.00;99575.00;5051287;28;20080;-44
2023/03/18 07:59:09;;;;;;;4.68;1.30;;;;;;;9.64;100.00;99572.78;5043750;28;20045;-44
2023/03/18 08:01:38;;;;;;;5.88;1.00;;;;;;;9.71;100.00;99564.66;5050194;28;20483;-47
2023/03/18 08:04:05;;;;;;;3.85;1.10;;;;;;;9.79;100.00;99580.19;5032844;28;20048;-44
2023/03/18 08:06:33;;;;;;;5.22;1.13;;;;;;;9.86;100.00;99588.59;5049363;28;20087;-46
2023/03/18 08:09:02;;;;;;;9.43;1.13;;;;;;;9.90;100.00;99586.69;5049503;28;20041;-44
2023/03/18 08:11:29;;;;;;;5.88;1.58;;;;;;;9.95;100.00;99582.81;5041582;28;20411;-44
2023/03/18 08:13:56;;;;;;;4.85;1.10;;;;;;;9.99;100.00;99594.72;5049405;28;20045;-47
2023/03/18 08:16:22;;;;;;;4.10;1.02;;;;;;;10.05;100.00;99594.06;5049693;28;20055;-44
2023/03/18 08:18:49;;;;;;;6.75;1.30;;;;;;;10.09;100.00;99599.63;5050331;28;20049;-44
2023/03/18 08:21:16;;;;;;;15.02;2.70;;;;;;;10.14;100.00;99600.16;5050059;28;20398;-46
2023/03/18 08:23:43;;;;;;;3.60;1.23;;;;;;;10.19;100.00;99601.84;5042192;28;20379;-44
2023/03/18 08:26:10;;;;;;;3.38;1.20;;;;;;;10.24;100.00;99607.84;5041494;28;20066;-43
2023/03/18 08:28:38;;;;;;;3.42;1.20;;;;;;;10.29;100.00;99610.31;5045269;28;20056;-44
2023/03/18 08:31:05;;;;;;;4.78;1.23;;;;;;;10.33;100.00;99602.84;5047867;28;20143;-44
2023/03/18 08:33:32;;;;;;;7.03;1.27;;;;;;;10.40;100.00;99614.03;5050072;28;20056;-45
2023/03/18 08:35:59;;;;;;;2.47;0.65;;;;;;;10.49;100.00;99616.53;5048279;28;20037;-48
2023/03/18 08:38:25;;;;;;;4.35;0.90;;;;;;;10.60;100.00;99628.56;5037054;28;20204;-50
2023/03/18 08:40:52;;;;;;;4.88;1.02;;;;;;;10.70;100.00;99624.34;5050003;28;20595;-47
2023/03/18 08:43:21;;;;;;;4.47;2.00;;;;;;;10.79;100.00;99619.34;5055249;28;20120;-43
2023/03/18 08:45:54;;;;;;;6.28;1.23;;;;;;;10.88;100.00;99628.19;5048447;28;20136;-45
2023/03/18 08:48:23;;;;;;;5.25;2.22;;;;;;;10.98;100.00;99633.88;5041846;28;20080;-44
2023/03/18 08:50:51;;;;;;;5.30;1.48;;;;;;;11.10;100.00;99630.06;5040679;28;20052;-44
2023/03/18 08:53:18;;;;;;;2.72;1.08;;;;;;;11.29;100.00;99627.16;5042560;28;20045;-44
2023/03/18 08:55:45;;;;;;;6.13;1.40;;;;;;;11.50;100.00;99640.47;5045343;28;20498;-45
2023/03/18 08:58:12;;;;;;;5.00;0.90;;;;;;;11.68;100.00;99633.16;5042995;28;20045;-46
2023/03/18 09:00:40;;;;;;;1.85;0.80;;;;;;;11.79;100.00;99627.75;5041721;28;20057;-44
2023/03/18 09:03:08;;;;;;;3.25;0.80;;;;;;;11.81;100.00;99642.06;5042042;28;20090;-44
2023/03/18 09:05:37;;;;;;;6.10;1.23;;;;;;;11.78;100.00;99649.13;5046578;28;20068;-44
2023/03/18 09:08:05;;;;;;;4.18;0.82;;;;;;;11.76;100.00;99650.69;5048470;28;20117;-46
2023/03/18 09:10:32;;;;;;;4.10;0.90;;;;;;;11.71;100.00;99648.25;5046979;28;20069;-44
2023/03/18 09:12:59;;;;;;;4.43;1.55;;;;;;;11.65;100.00;99653.31;5044566;28;20502;-45
2023/03/18 09:15:26;;;;;;;6.47;0.93;;;;;;;11.58;100.00;99654.03;5049103;28;20487;-47
2023/03/18 09:17:53;;;;;;;5.85;1.10;;;;;;;11.53;100.00;99648.84;5049435;28;20049;-44
2023/03/18 09:20:39;;;;;;;4.50;1.15;;;;;;;11.49;100.00;99647.97;5048469;28;20037;-54
2023/03/18 09:23:07;;;;;;;7.07;1.30;;;;;;;11.47;100.00;99644.78;5049058;28;20040;-44
2023/03/18 09:25:34;;;;;;;5.00;0.95;;;;;;;11.48;100.00;99651.13;5049274;28;20441;-44
2023/03/18 09:28:01;;;;;;;4.60;1.42;;;;;;;11.52;100.00;99654.75;5048487;28;20051;-44
2023/03/18 09:30:29;;;;;;;1.30;0.60;;;;;;;11.54;100.00;99655.97;5048825;28;20040;-44
2023/03/18 09:32:55;;;;;;;11.80;1.33;;;;;;;11.57;100.00;99654.41;5046637;28;20048;-49
2023/03/18 09:35:23;;;;;;;5.70;0.80;;;;;;;11.60;100.00;99654.44;5047986;28;20240;-45
2023/03/18 09:37:50;;;;;;;5.07;0.85;;;;;;;11.62;100.00;99657.63;5048378;28;20520;-44
2023/03/18 09:40:25;;;;;;;5.25;0.85;;;;;;;11.65;100.00;99661.63;5048926;28;20084;-44
2023/03/18 09:43:22;;;;;;;5.57;1.00;;;;;;;11.66;100.00;99656.88;5023964;28;20037;-44
2023/03/18 09:46:04;;;;;;;6.32;1.40;;;;;;;11.67;100.00;99661.25;5048643;28;20499;-44
2023/03/18 09:48:49;;;;;;;;;;;;;;;11.65;100.00;99666.41;5049377;28;20102;-44
2023/03/18 09:51:53;;;;;;;2.53;0.98;;;;;;;11.68;100.00;99668.38;5048648;28;19972;-48
2023/03/18 09:54:40;;;;;;;7.80;1.25;;;;;;;11.66;99.53;99673.53;5047123;28;20395;-44
2023/03/18 09:57:35;;;;;;;5.28;0.98;;;;;;;11.66;99.57;99679.06;5048877;28;20086;-48
2023/03/18 10:00:35;;;;;;;1.95;0.50;;;;;;;11.65;99.75;99683.03;5047995;28;20053;-44
2023/03/18 10:03:12;;;;;;;5.18;0.95;;;;;;;11.63;99.30;99681.41;5045337;28;20064;-44
2023/03/18 10:05:45;;;;;;;5.70;0.77;;;;;;;11.61;98.97;99683.78;5048182;28;20102;-44
2023/03/18 10:08:24;;;;;;;2.38;0.90;;;;;;;11.60;98.62;99692.47;5048290;28;20487;-43
2023/03/18 10:10:51;;;;;;;6.82;1.10;;;;;;;11.59;98.36;99690.88;5046735;28;20479;-46
2023/03/18 10:13:28;;;;;;;3.03;0.73;;;;;;;11.58;98.02;99700.38;5048146;28;20048;-44
2023/03/18 10:15:57;;;;;;;1.92;0.95;;;;;;;11.58;98.03;99692.84;5048902;28;20052;-43
2023/03/18 10:18:29;;;;;;;5.40;1.00;;;;;;;11.59;97.81;99697.22;5030872;28;20446;-43
2023/03/18 10:21:01;;;;;;;;;;;;;;;11.61;98.17;99699.63;5049189;28;20077;-43
2023/03/18 10:23:43;;;;;;;3.95;0.85;;;;;;;11.65;97.66;99697.66;5048637;28;19928;-43
2023/03/18 10:26:31;;;;;;;4.60;1.27;;;;;;;11.68;97.58;99699.69;5048482;28;20045;-44
2023/03/18 10:29:20;;;;;;;4.70;1.63;;;;;;;11.71;97.34;99700.94;5036714;28;20033;-44
2023/03/18 10:31:50;;;;;;;2.90;0.98;;;;;;;11.70;97.07;99710.44;5031388;28;20087;-44
2023/03/18 10:34:32;;;;;;;4.90;1.02;;;;;;;11.71;97.33;99709.25;5048413;28;20060;-44
2023/03/18 10:37:05;;;;;;;3.67;1.10;;;;;;;11.74;97.11;99702.97;5048568;28;20077;-44
2023/03/18 10:39:34;;;;;;;8.93;1.42;;;;;;;11.78;96.85;99712.13;5048935;28;20131;-44
2023/03/18 10:42:30;;;;;;;6.63;1.20;;;;;;;11.79;96.82;99708.16;5034666;28;20056;-44
2023/03/18 10:45:20;;;;;;;3.97;1.05;;;;;;;11.85;96.81;99712.22;5051502;28;20041;-44
2023/03/18 10:48:14;;;;;;;4.85;1.10;;;;;;;11.95;96.76;99719.84;5049568;28;20052;-45
2023/03/18 10:50:45;;;;;;;5.22;1.30;;;;;;;12.04;96.34;99723.13;5026382;28;20446;-44
2023/03/18 10:53:40;;;;;;;5.55;1.27;;;;;;;12.11;96.15;99721.22;5045261;28;20056;-43
2023/03/18 10:56:09;;;;;;;2.88;0.70;;;;;;;12.17;96.29;99724.47;5045742;28;20049;-44
2023/03/18 10:58:40;;;;;;;1.88;0.63;;;;;;;12.23;96.18;99731.28;5046642;28;20079;-46
2023/03/18 11:01:13;;;;;;;3.23;0.77;;;;;;;12.27;96.29;99737.63;5044064;28;20088;-44
2023/03/18 11:03:49;;;;;;;2.55;0.70;;;;;;;12.24;96.33;99732.84;5048303;28;20049;-44
2023/03/18 11:06:42;;;;;;;2.45;0.50;;;;;;;12.18;96.65;99739.91;5046069;28;20048;-50
2023/03/18 11:09:11;;;;;;;3.10;0.80;;;;;;;12.06;96.92;99743.75;5049207;28;20051;-49
2023/03/18 11:11:41;;;;;;;5.57;2.15;;;;;;;11.99;97.08;99751.22;5046687;28;20107;-50
2023/03/18 11:14:15;;;;;;;2.60;1.35;;;;;;;11.90;97.50;99745.16;5046292;28;20045;-45
2023/03/18 11:16:59;;;;;;;2.42;1.27;;;;;;;11.81;97.48;99744.66;5045199;28;20043;-48
2023/03/18 11:19:37;;;;;;;4.65;1.20;;;;;;;11.72;97.56;99756.03;5041900;28;20063;-49
2023/03/18 11:22:16;;;;;;;3.35;1.25;;;;;;;11.68;97.96;99749.59;5032109;28;20455;-48
2023/03/18 11:24:44;;;;;;;4.45;1.50;;;;;;;11.68;97.74;99755.13;5044724;28;20528;-43
2023/03/18 11:27:14;;;;;;;4.88;1.83;;;;;;;11.69;97.92;99753.19;5045939;28;20057;-43
2023/03/18 11:29:44;;;;;;;7.20;1.70;;;;;;;11.71;97.58;99753.63;5051373;28;20045;-44
2023/03/18 11:32:32;;;;;;;8.65;1.73;;;;;;;11.71;97.53;99748.88;5049777;28;20453;-44
2023/03/18 11:35:02;;;;;;;6.95;1.52;;;;;;;11.73;97.54;99756.84;5049189;28;20094;-44
2023/03/18 11:37:30;;;;;;;4.15;1.67;;;;;;;11.76;97.53;99756.84;5051492;28;20492;-45
2023/03/18 11:40:25;;;;;;;9.25;1.90;;;;;;;11.76;97.40;99767.16;5048885;28;20048;-48